createdAt,value
2023-04-26T00:01:35.560Z,3.53
2023-04-26T00:04:03.530Z,2.93
2023-04-26T00:06:30.845Z,3.53
2023-04-26T00:08:57.879Z,2.67
2023-04-26T00:11:24.891Z,2.07
2023-04-26T00:13:52.102Z,1.73
2023-04-26T00:16:20.208Z,2.40
2023-04-26T00:18:47.333Z,2.63
2023-04-26T00:21:14.655Z,3.40
2023-04-26T00:23:42.237Z,2.37
2023-04-26T00:26:09.232Z,1.20
2023-04-26T00:28:36.309Z,1.60
2023-04-26T00:31:03.304Z,1.70
2023-04-26T00:33:30.643Z,2.00
2023-04-26T00:35:57.617Z,2.00
2023-04-26T00:38:24.691Z,1.73
2023-04-26T00:40:51.753Z,1.63
2023-04-26T00:43:18.828Z,1.80
2023-04-26T00:45:46.108Z,1.40
2023-04-26T00:48:13.304Z,1.67
2023-04-26T00:50:40.424Z,1.80
2023-04-26T00:53:08.989Z,2.10
2023-04-26T00:55:36.871Z,1.70
2023-04-26T00:58:03.917Z,2.20
2023-04-26T01:00:30.914Z,2.33
2023-04-26T01:02:58.138Z,3.30
2023-04-26T01:05:25.727Z,2.60
2023-04-26T01:07:52.884Z,2.37
2023-04-26T01:10:19.888Z,2.43
2023-04-26T01:12:47.989Z,2.20
2023-04-26T01:15:14.985Z,2.43
2023-04-26T01:17:42.034Z,2.30
2023-04-26T01:20:10.540Z,2.03
2023-04-26T01:22:37.561Z,2.23
2023-04-26T01:25:07.796Z,3.00
2023-04-26T01:27:36.136Z,2.37
2023-04-26T01:30:03.873Z,2.23
2023-04-26T01:32:31.046Z,2.10
2023-04-26T01:34:58.099Z,2.20
2023-04-26T01:37:25.152Z,1.77
2023-04-26T01:39:52.441Z,1.90
2023-04-26T01:42:19.468Z,2.10
2023-04-26T01:44:46.619Z,1.77
2023-04-26T01:47:13.670Z,2.13
2023-04-26T01:49:41.691Z,2.40
2023-04-26T01:52:08.791Z,2.07
2023-04-26T01:54:35.845Z,2.10
2023-04-26T01:57:02.986Z,1.90
2023-04-26T01:59:30.256Z,1.87
2023-04-26T02:01:57.485Z,1.60
2023-04-26T02:04:24.537Z,1.90
2023-04-26T02:06:51.544Z,2.00
2023-04-26T02:09:18.652Z,2.20
2023-04-26T02:11:46.168Z,1.70
2023-04-26T02:14:13.321Z,2.00
2023-04-26T02:16:40.686Z,1.90
2023-04-26T02:19:10.970Z,2.30
2023-04-26T02:21:57.178Z,1.93
2023-04-26T02:24:25.329Z,1.97
2023-04-26T02:26:54.600Z,2.53
2023-04-26T02:29:32.691Z,2.20
2023-04-26T02:32:07.914Z,2.07
2023-04-26T02:34:35.626Z,1.77
2023-04-26T02:37:02.699Z,1.70
2023-04-26T02:39:29.686Z,1.60
2023-04-26T02:41:57.619Z,1.90
2023-04-26T02:44:24.642Z,1.83
2023-04-26T02:46:51.723Z,1.60
2023-04-26T02:49:18.764Z,1.67
2023-04-26T02:51:45.783Z,1.63
2023-04-26T02:54:12.792Z,1.80
2023-04-26T02:56:39.801Z,2.10
2023-04-26T02:59:07.218Z,1.70
2023-04-26T03:01:34.354Z,1.70
2023-04-26T03:04:01.620Z,2.27
2023-04-26T03:06:29.869Z,2.20
2023-04-26T03:08:56.910Z,2.57
2023-04-26T03:11:23.951Z,2.90
2023-04-26T03:13:50.933Z,3.23
2023-04-26T03:16:23.433Z,2.90
2023-04-26T03:18:51.356Z,3.50
2023-04-26T03:21:18.633Z,3.90
2023-04-26T03:23:46.007Z,3.73
2023-04-26T03:26:13.002Z,3.30
2023-04-26T03:28:41.816Z,3.60
2023-04-26T03:31:08.774Z,4.20
2023-04-26T03:33:35.875Z,3.87
2023-04-26T03:36:02.923Z,3.70
2023-04-26T03:38:29.942Z,4.10
2023-04-26T03:40:56.907Z,4.33
2023-04-26T03:43:24.004Z,4.77
2023-04-26T03:45:52.654Z,4.70
2023-04-26T03:48:19.718Z,4.00
2023-04-26T03:50:46.833Z,4.63
2023-04-26T03:53:13.848Z,3.87
2023-04-26T03:55:41.844Z,5.10
2023-04-26T03:58:08.914Z,4.00
2023-04-26T04:00:38.840Z,4.30
2023-04-26T04:03:07.375Z,4.20
2023-04-26T04:05:34.782Z,4.33
2023-04-26T04:08:01.992Z,4.67
2023-04-26T04:10:29.769Z,4.13
2023-04-26T04:12:56.949Z,4.07
2023-04-26T04:15:24.078Z,4.57
2023-04-26T04:17:51.221Z,4.70
2023-04-26T04:20:18.464Z,3.67
2023-04-26T04:22:45.586Z,4.40
2023-04-26T04:25:13.770Z,4.00
2023-04-26T04:27:45.188Z,4.67
2023-04-26T04:30:12.551Z,3.85
2023-04-26T04:32:40.349Z,4.10
2023-04-26T04:35:07.893Z,4.00
2023-04-26T04:37:35.046Z,4.18
2023-04-26T04:40:02.192Z,5.57
2023-04-26T04:42:29.233Z,4.97
2023-04-26T04:44:57.230Z,5.28
2023-04-26T04:47:24.310Z,7.35
2023-04-26T04:49:53.060Z,6.93
2023-04-26T04:52:21.931Z,4.88
2023-04-26T04:54:48.999Z,4.85
2023-04-26T04:57:16.826Z,5.35
2023-04-26T04:59:43.968Z,4.70
2023-04-26T05:02:11.132Z,4.53
2023-04-26T05:04:38.407Z,5.47
2023-04-26T05:07:06.664Z,5.28
2023-04-26T05:09:33.980Z,5.07
2023-04-26T05:12:01.354Z,4.80
2023-04-26T05:14:29.969Z,4.82
2023-04-26T05:16:57.648Z,5.05
2023-04-26T05:19:24.895Z,4.57
2023-04-26T05:21:53.358Z,4.63
2023-04-26T05:24:20.315Z,5.35
2023-04-26T05:26:47.572Z,5.32
2023-04-26T05:29:14.584Z,5.25
2023-04-26T05:31:41.645Z,5.07
2023-04-26T05:34:08.676Z,5.05
2023-04-26T05:36:35.754Z,5.50
2023-04-26T05:39:02.770Z,5.38
2023-04-26T05:41:29.771Z,5.95
2023-04-26T05:43:57.245Z,7.57
2023-04-26T05:46:24.337Z,5.80
2023-04-26T05:48:52.052Z,5.00
2023-04-26T05:51:19.098Z,4.63
2023-04-26T05:53:46.249Z,3.88
2023-04-26T05:56:13.239Z,4.28
2023-04-26T05:58:40.306Z,5.03
2023-04-26T06:01:07.502Z,4.43
2023-04-26T06:03:34.805Z,3.88
2023-04-26T06:06:02.201Z,4.03
2023-04-26T06:08:29.472Z,3.95
2023-04-26T06:10:56.495Z,3.70
2023-04-26T06:13:23.623Z,4.20
2023-04-26T06:15:50.615Z,4.82
2023-04-26T06:18:17.667Z,3.55
2023-04-26T06:20:44.633Z,3.55
2023-04-26T06:23:11.639Z,3.55
2023-04-26T06:25:44.254Z,3.47
2023-04-26T06:28:13.058Z,3.60
2023-04-26T06:30:40.146Z,3.78
2023-04-26T06:33:07.204Z,3.15
2023-04-26T06:35:39.399Z,3.30
2023-04-26T06:38:06.721Z,3.60
2023-04-26T06:40:34.768Z,3.50
2023-04-26T06:43:01.792Z,2.85
2023-04-26T06:45:28.908Z,3.33
2023-04-26T06:47:57.195Z,3.45
2023-04-26T06:50:24.230Z,2.45
2023-04-26T06:52:51.560Z,3.22
2023-04-26T06:55:19.081Z,2.22
2023-04-26T06:57:46.109Z,2.80
2023-04-26T07:00:14.074Z,2.63
2023-04-26T07:02:41.453Z,2.97
2023-04-26T07:05:09.591Z,2.88
2023-04-26T07:07:36.623Z,3.38
2023-04-26T07:10:04.729Z,2.47
2023-04-26T07:12:31.798Z,2.80
2023-04-26T07:14:58.878Z,3.10
2023-04-26T07:17:25.895Z,3.22
2023-04-26T07:19:54.005Z,2.22
2023-04-26T07:22:22.551Z,2.28
2023-04-26T07:24:49.648Z,2.63
2023-04-26T07:27:16.634Z,2.70
2023-04-26T07:29:43.639Z,2.75
2023-04-26T07:32:11.382Z,3.08
2023-04-26T07:34:38.474Z,2.70
2023-04-26T07:37:05.480Z,2.80
2023-04-26T07:39:32.509Z,2.53
2023-04-26T07:41:59.551Z,2.70
2023-04-26T07:44:26.710Z,2.47
2023-04-26T07:46:53.688Z,2.47
2023-04-26T07:49:20.757Z,2.53
2023-04-26T07:51:48.991Z,2.20
2023-04-26T07:54:15.981Z,2.53
2023-04-26T07:56:42.957Z,2.60
2023-04-26T07:59:09.931Z,2.70
2023-04-26T08:01:37.174Z,3.38
2023-04-26T08:04:05.075Z,3.25
2023-04-26T08:06:33.315Z,2.92
2023-04-26T08:09:00.409Z,2.65
2023-04-26T08:11:27.445Z,2.30
2023-04-26T08:13:54.615Z,2.85
2023-04-26T08:16:21.830Z,2.47
2023-04-26T08:18:48.884Z,2.80
2023-04-26T08:21:16.088Z,2.80
2023-04-26T08:23:43.071Z,2.85
2023-04-26T08:26:10.127Z,3.72
2023-04-26T08:28:38.071Z,3.03
2023-04-26T08:31:05.395Z,2.53
2023-04-26T08:33:32.505Z,3.47
2023-04-26T08:36:01.863Z,3.15
2023-04-26T08:38:29.776Z,2.45
2023-04-26T08:41:03.533Z,2.15
2023-04-26T08:43:30.575Z,2.03
2023-04-26T08:46:00.629Z,1.95
2023-04-26T08:48:30.073Z,2.35
2023-04-26T08:50:57.283Z,2.58
2023-04-26T08:53:25.130Z,2.50
2023-04-26T08:55:53.313Z,2.83
2023-04-26T08:58:21.431Z,3.03
2023-04-26T09:00:49.106Z,2.22
2023-04-26T09:03:16.374Z,2.13
2023-04-26T09:05:44.352Z,2.20
2023-04-26T09:08:17.544Z,1.83
2023-04-26T09:10:45.504Z,1.80
2023-04-26T09:13:12.995Z,2.03
2023-04-26T09:15:40.531Z,2.08
2023-04-26T09:18:21.602Z,1.85
2023-04-26T09:21:09.391Z,1.83
2023-04-26T09:23:36.860Z,1.80
2023-04-26T09:26:21.113Z,2.50
2023-04-26T09:28:48.416Z,1.92
2023-04-26T09:31:39.625Z,2.25
2023-04-26T09:34:07.146Z,2.15
2023-04-26T09:36:58.058Z,2.30
2023-04-26T09:39:38.095Z,2.58
2023-04-26T09:42:06.065Z,1.85
2023-04-26T09:44:33.816Z,2.35
2023-04-26T09:47:12.837Z,2.22
2023-04-26T09:49:51.986Z,2.55
2023-04-26T09:52:19.596Z,3.63
2023-04-26T09:54:50.075Z,2.28
2023-04-26T09:57:19.592Z,3.00
2023-04-26T09:59:54.333Z,3.25
2023-04-26T10:02:28.037Z,3.60
2023-04-26T10:04:57.508Z,2.67
2023-04-26T10:07:26.801Z,2.25
2023-04-26T10:09:55.684Z,2.33
2023-04-26T10:12:22.905Z,2.10
2023-04-26T10:14:49.964Z,2.30
2023-04-26T10:17:21.070Z,2.25
2023-04-26T10:19:53.468Z,2.05
2023-04-26T10:22:33.646Z,2.17
2023-04-26T10:25:00.996Z,2.25
2023-04-26T10:27:43.361Z,2.20
2023-04-26T10:30:14.041Z,1.92
2023-04-26T10:32:56.165Z,1.73
2023-04-26T10:35:32.567Z,1.77
2023-04-26T10:38:02.397Z,1.92
2023-04-26T10:40:40.918Z,2.58
2023-04-26T10:43:18.293Z,2.45
2023-04-26T10:45:46.965Z,1.80
2023-04-26T10:48:23.737Z,1.98
2023-04-26T10:51:02.793Z,2.00
2023-04-26T10:53:45.633Z,2.30
2023-04-26T10:56:32.548Z,2.70
2023-04-26T10:59:33.145Z,2.63
2023-04-26T11:02:01.329Z,3.40
2023-04-26T11:04:52.582Z,2.22
2023-04-26T11:07:37.893Z,2.63
2023-04-26T11:10:10.631Z,1.83
2023-04-26T11:12:41.772Z,3.00
2023-04-26T11:15:09.412Z,2.65
2023-04-26T11:17:38.268Z,2.30
2023-04-26T11:20:10.413Z,2.17
2023-04-26T11:22:41.912Z,2.50
2023-04-26T11:25:09.890Z,2.63
2023-04-26T11:27:37.297Z,2.60
2023-04-26T11:30:05.372Z,2.72
2023-04-26T11:32:33.744Z,2.80
2023-04-26T11:35:01.348Z,2.50
2023-04-26T11:37:28.452Z,2.85
2023-04-26T11:39:57.741Z,2.10
2023-04-26T11:42:27.552Z,2.53
2023-04-26T11:44:57.423Z,2.25
2023-04-26T11:47:26.121Z,3.20
2023-04-26T11:49:53.379Z,2.63
2023-04-26T11:52:20.505Z,2.38
2023-04-26T11:54:47.552Z,2.80
2023-04-26T11:57:17.749Z,2.22
2023-04-26T11:59:46.223Z,2.03
2023-04-26T12:02:13.378Z,2.10
2023-04-26T12:04:41.488Z,1.70
2023-04-26T12:07:09.535Z,2.03
2023-04-26T12:09:42.813Z,2.33
2023-04-26T12:12:11.214Z,3.05
2023-04-26T12:14:41.461Z,2.40
2023-04-26T12:17:08.637Z,2.95
2023-04-26T12:19:37.277Z,2.30
2023-04-26T12:22:06.064Z,2.58
2023-04-26T12:24:35.935Z,2.63
2023-04-26T12:27:07.176Z,1.70
2023-04-26T12:29:35.497Z,1.98
2023-04-26T12:32:04.204Z,2.17
2023-04-26T12:34:31.722Z,2.08
2023-04-26T12:36:58.798Z,1.88
2023-04-26T12:39:25.926Z,2.25
2023-04-26T12:41:53.143Z,2.95
2023-04-26T12:44:22.080Z,2.22
2023-04-26T12:46:50.126Z,2.47
2023-04-26T12:49:17.329Z,2.70
2023-04-26T12:51:44.372Z,2.35
2023-04-26T12:54:11.316Z,2.10
2023-04-26T12:56:43.880Z,2.53
2023-04-26T12:59:11.209Z,2.40
2023-04-26T13:01:38.333Z,3.08
2023-04-26T13:04:06.274Z,2.05
2023-04-26T13:06:34.061Z,3.08
2023-04-26T13:09:01.814Z,2.42
2023-04-26T13:11:28.999Z,2.38
2023-04-26T13:13:55.965Z,2.38
2023-04-26T13:16:23.316Z,2.40
2023-04-26T13:18:50.394Z,1.90
2023-04-26T13:21:17.417Z,2.00
2023-04-26T13:23:44.457Z,2.50
2023-04-26T13:26:11.438Z,2.10
2023-04-26T13:28:38.487Z,3.60
2023-04-26T13:31:06.497Z,2.00
2023-04-26T13:33:33.931Z,1.90
2023-04-26T13:36:00.990Z,2.60
2023-04-26T13:38:28.002Z,2.10
2023-04-26T13:40:55.198Z,2.03
2023-04-26T13:43:22.194Z,3.08
2023-04-26T13:45:49.202Z,2.10
2023-04-26T13:48:16.639Z,2.58
2023-04-26T13:50:43.806Z,2.38
2023-04-26T13:53:11.407Z,2.45
2023-04-26T13:55:38.470Z,2.13
2023-04-26T13:58:05.489Z,1.95
2023-04-26T14:00:32.547Z,2.35
2023-04-26T14:02:59.689Z,2.35
2023-04-26T14:05:26.778Z,2.47
2023-04-26T14:07:55.194Z,2.97
2023-04-26T14:10:22.664Z,2.38
2023-04-26T14:12:49.762Z,2.15
2023-04-26T14:15:16.835Z,2.13
2023-04-26T14:17:46.721Z,1.73
2023-04-26T14:20:13.813Z,2.25
2023-04-26T14:22:41.072Z,2.38
2023-04-26T14:25:08.709Z,2.00
2023-04-26T14:27:37.922Z,2.33
2023-04-26T14:30:05.724Z,2.72
2023-04-26T14:32:33.162Z,2.60
2023-04-26T14:35:00.151Z,2.63
2023-04-26T14:37:27.516Z,2.30
2023-04-26T14:39:54.511Z,3.22
2023-04-26T14:42:21.560Z,2.85
2023-04-26T14:44:48.623Z,4.65
2023-04-26T14:47:15.669Z,2.95
2023-04-26T14:49:42.693Z,3.88
2023-04-26T14:52:09.722Z,3.42
2023-04-26T14:54:40.128Z,3.13
2023-04-26T14:57:07.805Z,2.78
2023-04-26T14:59:35.304Z,2.97
2023-04-26T15:02:02.911Z,2.72
2023-04-26T15:04:30.188Z,2.45
2023-04-26T15:06:57.395Z,2.35
2023-04-26T15:09:24.906Z,2.80
2023-04-26T15:11:51.931Z,2.13
2023-04-26T15:14:18.949Z,2.58
2023-04-26T15:16:45.989Z,2.53
2023-04-26T15:19:13.020Z,2.35
2023-04-26T15:21:40.057Z,2.60
2023-04-26T15:24:07.942Z,2.05
2023-04-26T15:26:34.987Z,2.30
2023-04-26T15:29:02.095Z,2.50
2023-04-26T15:31:29.188Z,2.72
2023-04-26T15:33:59.258Z,2.28
2023-04-26T15:36:26.276Z,2.58
2023-04-26T15:38:53.446Z,2.47
2023-04-26T15:41:20.502Z,2.13
2023-04-26T15:43:47.472Z,2.08
2023-04-26T15:46:15.258Z,3.10
2023-04-26T15:48:42.390Z,2.42
2023-04-26T15:51:09.439Z,2.03
2023-04-26T15:53:41.211Z,2.45
2023-04-26T15:56:15.618Z,2.40
2023-04-26T15:58:48.639Z,2.35
2023-04-26T16:01:15.997Z,2.15
2023-04-26T16:03:46.664Z,2.30
2023-04-26T16:06:14.689Z,1.55
2023-04-26T16:08:41.766Z,2.45
2023-04-26T16:11:08.795Z,2.47
2023-04-26T16:13:35.941Z,2.78
2023-04-26T16:16:08.291Z,2.70
2023-04-26T16:18:35.495Z,2.33
2023-04-26T16:21:10.036Z,3.00
2023-04-26T16:23:37.780Z,3.10
2023-04-26T16:26:05.552Z,2.92
2023-04-26T16:28:32.660Z,2.60
2023-04-26T16:31:00.040Z,2.47
2023-04-26T16:33:27.511Z,2.28
2023-04-26T16:35:57.880Z,2.85
2023-04-26T16:38:24.888Z,2.95
2023-04-26T16:40:58.820Z,2.72
2023-04-26T16:43:30.391Z,3.17
2023-04-26T16:46:05.888Z,3.92
2023-04-26T16:48:35.626Z,2.97
2023-04-26T16:51:07.095Z,2.97
2023-04-26T16:53:34.894Z,3.22
2023-04-26T16:56:01.951Z,2.63
2023-04-26T16:58:29.099Z,3.00
2023-04-26T17:00:56.429Z,3.42
2023-04-26T17:03:24.810Z,2.38
2023-04-26T17:05:52.097Z,2.67
2023-04-26T17:08:19.873Z,2.80
2023-04-26T17:10:47.841Z,3.22
2023-04-26T17:13:15.004Z,3.28
2023-04-26T17:15:43.325Z,3.13
2023-04-26T17:18:11.060Z,3.40
2023-04-26T17:20:38.226Z,4.25
2023-04-26T17:23:05.462Z,4.10
2023-04-26T17:25:32.539Z,3.75
2023-04-26T17:27:59.638Z,4.15
2023-04-26T17:30:26.664Z,4.05
2023-04-26T17:32:53.810Z,4.32
2023-04-26T17:35:20.970Z,3.95
2023-04-26T17:37:50.081Z,5.07
2023-04-26T17:40:18.678Z,3.92
2023-04-26T17:42:46.596Z,3.90
2023-04-26T17:45:14.453Z,4.13
2023-04-26T17:47:45.668Z,4.03
2023-04-26T17:50:12.774Z,3.55
2023-04-26T17:52:39.797Z,4.43
2023-04-26T17:55:09.999Z,3.83
2023-04-26T17:57:37.569Z,3.87
2023-04-26T18:00:10.252Z,4.67
2023-04-26T18:02:38.371Z,4.47
2023-04-26T18:05:08.659Z,4.07
2023-04-26T18:07:36.102Z,3.63
2023-04-26T18:10:04.226Z,4.57
2023-04-26T18:12:32.055Z,6.10
2023-04-26T18:14:59.223Z,4.57
2023-04-26T18:17:26.317Z,5.33
2023-04-26T18:19:53.400Z,5.17
2023-04-26T18:22:20.513Z,4.23
2023-04-26T18:24:47.534Z,4.57
2023-04-26T18:27:14.615Z,4.30
2023-04-26T18:29:41.690Z,6.83
2023-04-26T18:32:08.702Z,9.70
2023-04-26T18:34:35.804Z,6.20
2023-04-26T18:37:02.921Z,4.40
2023-04-26T18:39:30.412Z,4.47
2023-04-26T18:41:57.519Z,4.55
2023-04-26T18:44:24.541Z,5.87
2023-04-26T18:46:55.732Z,6.17
2023-04-26T18:49:23.854Z,6.70
2023-04-26T18:51:51.171Z,6.07
2023-04-26T18:54:18.136Z,6.20
2023-04-26T18:56:45.372Z,5.17
2023-04-26T18:59:12.616Z,4.73
2023-04-26T19:01:39.753Z,5.53
2023-04-26T19:04:09.108Z,4.30
2023-04-26T19:06:36.315Z,4.10
2023-04-26T19:09:04.597Z,4.40
2023-04-26T19:11:31.792Z,5.20
2023-04-26T19:13:58.764Z,5.13
2023-04-26T19:16:25.926Z,4.43
2023-04-26T19:18:52.983Z,4.10
2023-04-26T19:21:19.953Z,4.97
2023-04-26T19:23:46.920Z,4.07
2023-04-26T19:26:13.972Z,3.73
2023-04-26T19:28:41.663Z,3.73
2023-04-26T19:31:08.758Z,3.80
2023-04-26T19:33:37.032Z,4.53
2023-04-26T19:36:04.349Z,4.33
2023-04-26T19:38:31.463Z,4.27
2023-04-26T19:40:58.445Z,4.47
2023-04-26T19:43:25.640Z,4.23
2023-04-26T19:45:52.632Z,4.87
2023-04-26T19:48:19.592Z,5.07
2023-04-26T19:50:47.576Z,4.10
2023-04-26T19:53:15.496Z,3.70
2023-04-26T19:55:43.120Z,4.03
2023-04-26T19:58:11.012Z,3.83
2023-04-26T20:00:39.858Z,4.83
2023-04-26T20:03:07.116Z,4.30
2023-04-26T20:05:34.468Z,4.67
2023-04-26T20:08:01.808Z,3.80
2023-04-26T20:10:34.065Z,4.47
2023-04-26T20:13:01.511Z,4.03
2023-04-26T20:15:30.462Z,4.30
2023-04-26T20:17:58.733Z,4.53
2023-04-26T20:20:25.794Z,4.10
2023-04-26T20:22:52.814Z,4.03
2023-04-26T20:25:20.174Z,3.47
2023-04-26T20:27:48.069Z,3.63
2023-04-26T20:30:15.820Z,4.07
2023-04-26T20:32:43.305Z,3.73
2023-04-26T20:35:10.454Z,3.73
2023-04-26T20:37:37.459Z,4.40
2023-04-26T20:40:05.155Z,4.63
2023-04-26T20:42:32.149Z,4.50
2023-04-26T20:45:01.795Z,4.57
2023-04-26T20:47:29.700Z,4.57
2023-04-26T20:49:56.957Z,5.10
2023-04-26T20:52:24.033Z,5.13
2023-04-26T20:54:50.966Z,4.87
2023-04-26T20:57:17.961Z,5.30
2023-04-26T20:59:44.940Z,4.63
2023-04-26T21:02:11.992Z,4.83
2023-04-26T21:04:41.895Z,4.90
2023-04-26T21:07:12.552Z,5.13
2023-04-26T21:09:39.694Z,4.83
2023-04-26T21:12:06.969Z,5.70
2023-04-26T21:14:34.229Z,5.13
2023-04-26T21:17:01.543Z,5.53
2023-04-26T21:19:28.588Z,4.83
2023-04-26T21:21:55.719Z,5.10
2023-04-26T21:24:22.925Z,5.13
2023-04-26T21:26:50.067Z,5.70
2023-04-26T21:29:17.146Z,5.37
2023-04-26T21:31:44.331Z,5.53
2023-04-26T21:34:11.493Z,4.77
2023-04-26T21:36:38.465Z,4.83
2023-04-26T21:39:05.460Z,5.47
2023-04-26T21:41:32.585Z,6.03
2023-04-26T21:43:59.553Z,5.63
2023-04-26T21:46:26.958Z,6.00
2023-04-26T21:48:54.026Z,5.80
2023-04-26T21:51:21.053Z,6.00
2023-04-26T21:53:48.027Z,6.53
2023-04-26T21:56:15.143Z,6.70
2023-04-26T21:58:42.570Z,6.23
2023-04-26T22:01:18.665Z,7.33
2023-04-26T22:03:46.097Z,6.27
2023-04-26T22:06:13.194Z,6.07
2023-04-26T22:08:40.203Z,6.63
2023-04-26T22:11:07.187Z,7.13
2023-04-26T22:13:34.190Z,7.23
2023-04-26T22:16:01.242Z,8.10
2023-04-26T22:18:29.364Z,5.40
2023-04-26T22:20:56.505Z,6.70
2023-04-26T22:23:23.556Z,6.17
2023-04-26T22:25:50.646Z,7.30
2023-04-26T22:28:17.889Z,6.20
2023-04-26T22:30:44.891Z,6.60
2023-04-26T22:33:12.361Z,4.67
2023-04-26T22:35:39.754Z,5.70
2023-04-26T22:38:06.807Z,5.23
2023-04-26T22:40:33.896Z,4.93
2023-04-26T22:43:01.122Z,5.57
2023-04-26T22:45:28.280Z,5.23
2023-04-26T22:47:55.372Z,6.03
2023-04-26T22:50:22.545Z,5.37
2023-04-26T22:52:50.022Z,6.83
2023-04-26T22:55:17.732Z,6.37
2023-04-26T22:57:44.791Z,5.90
2023-04-26T23:00:12.829Z,5.60
2023-04-26T23:02:40.239Z,5.57
2023-04-26T23:05:10.725Z,4.93
2023-04-26T23:07:39.559Z,6.37
2023-04-26T23:10:07.505Z,5.60
2023-04-26T23:12:35.996Z,5.37
2023-04-26T23:15:05.115Z,4.80
2023-04-26T23:17:34.070Z,5.20
2023-04-26T23:20:01.805Z,4.50
2023-04-26T23:22:28.776Z,5.83
2023-04-26T23:24:55.914Z,5.33
2023-04-26T23:27:24.749Z,5.10
2023-04-26T23:29:51.869Z,5.33
2023-04-26T23:32:18.899Z,5.50
2023-04-26T23:34:45.895Z,5.87
2023-04-26T23:37:12.892Z,5.40
2023-04-26T23:39:39.902Z,6.10
2023-04-26T23:42:06.918Z,5.50
2023-04-26T23:44:33.996Z,4.97
2023-04-26T23:47:01.198Z,4.73
2023-04-26T23:49:28.333Z,5.47
2023-04-26T23:51:55.508Z,5.37
2023-04-26T23:54:22.521Z,5.23
2023-04-26T23:56:49.527Z,4.47
2023-04-26T23:59:16.907Z,5.43
